首页
METAR-TAF:

METAR-TAF

机场 :

瑟堡, 法国

纬度: 49-39N, 经度: 001-28W, 海拔: 138米

当前天气观测

该预报发布于14分钟前的21:00 UTC
风速14节,风向,在西北北转东北之间变化
温度 12°C
湿度 67%
气压 1014 hPa
能见度10公里或以上
多云层高于2900英尺
阴天层高于3400英尺

METAR: LFRC 262100Z AUTO 36014KT 320V020 9999 BKN029 OVC034 12/06 Q1014

时间: 23:14 (21:14 UTC)

预报

该预报发布于7小时和14分钟前的14:00 UTC
预报有效从26日的 15点(UTC)到 26日的 24点(UTC)
风速15节,风向北转西北,有时为25节阵风
能见度10公里或以上
散云层高于4000英尺
短暂存在
从 26日的 18点(UTC)到 26日的 24点(UTC)
风速18节,风向北转西北,有时为30节阵风

TAF: LFRC 261400Z 2615/2624 34015G25KT 9999 SCT040 TEMPO 2618/2624 34018G30KT

超过4000个机场的气象观测和天气预报(METAR&TAF报告)。

可查询的气象台以黄色和红色小点在地图上表示。

将鼠标移到小点上方,可查看气象台名称。

然后点击查看天气观测和预报。

如需切换地图:点击带黑十字的绿色按钮放大地图;点击带横线的绿色按钮缩小地图;或者点击绿色箭头查看邻近地区的地图。


METAR-TAF: